Sven Berger

Ojeador - VfB Stuttgart
20 Ago 2028
Domingo
Continuar

Personalidad

Adaptabilidad (2) Ambición (13) Controversia (20) Lealtad (15) Presión (6) Profesionalismo (8) Deportividad (7) Temperamento (17)

Perfil

Estilo de dirección Democrático
Licencia Nacional A
Determinación 9
Gestión de personas 13
Motivación 12
Disciplina 12
Satisfacción laboral
100%
Fatiga
0%
Cargo Ojeador
Salario 64.1K p/s
Contrato 14.03.2030

Rendimiento

Comportamiento Bueno
Efectividad del entrenamiento
51%
Desarrollo de jugadores
55%
Prevención de lesiones
75%
Implementación táctica
35%

Eventos recientes

Evaluó a un jugador ahora
Asistió a una reunión de captación ahora
Evaluó a un jugador 7d atrás
Asistió a una reunión de captación 7d atrás
Recomendó un objetivo de fichaje 7d atrás
Asistió a una reunión de captación 14d atrás
Recomendó un objetivo de fichaje 14d atrás
Presentó un informe a la directiva 14d atrás

Actualmente siguiendo

192
Jugador Club Estado Habilidad Confianza Observado Última observación Último voto
Mees Hilgers VfL Wolfsburg Negociando 139 / 134 72% 1 14.08.2028 -
Alex Verón Vélez Activo 115 / 123 40% 1 14.08.2028 -
Mateo Aguiar Tigre Activo 107 / 122 40% 1 14.08.2028 -
Aarón Ochoa Málaga Activo 129 / 133 40% 1 14.08.2028 -
Daniel Banjaqui Benfica Activo 127 / 141 40% 4 07.08.2028 -
Jorthy Mokio ADO Den Haag Activo 135 / 134 40% 2 07.08.2028 -
Haine Eames Brisbane Roar Activo 120 / 138 40% 1 07.08.2028 -
Ben Broggio Mansfield Town Activo 108 / 123 40% 3 31.07.2028 -
Tyler Fletcher Rotherham United Activo 114 / 117 40% 4 31.07.2028 -
Rio Ngumoha Plymouth Argyle Activo 149 / 144 40% 1 31.07.2028 -
Ryunosuke Sato Eibar Activo 140 / 130 40% 3 30.07.2028 -
Luca Williams-Barnett Walsall Activo 121 / 131 40% 2 30.07.2028 -
Gabriel Mec Feirense Activo 131 / 141 40% 2 29.07.2028 -
Eduardo Fernandes Benfica Activo 119 / 132 40% 1 29.07.2028 -
Igor Tyjon Barrow AFC Activo 126 / 136 40% 5 28.07.2028 -
Bautista Carboni Defensores Unidos Activo 105 / 103 40% 1 28.07.2028 -
Marc Bernal Sevilla Activo 153 / 149 40% 5 26.07.2028 -
Kerim Alajbegović Modena Activo 140 / 150 40% 2 26.07.2028 -
Ryan McAidoo Oldham Athletic Activo 130 / 129 40% 2 26.07.2028 -
Ibrahim Fullah Charlton Athletic Activo 127 / 124 40% 2 24.07.2028 -
Woo-Yeong Jeong Union Berlin Perdido 149 / 145 72% 1 24.07.2028 -
Isaque Obolon Activo 133 / 135 40% 1 24.07.2028 -
Mustafa Hekimoğlu Antalyaspor Activo 122 / 125 40% 2 17.07.2028 -
Trey Nyoni Rotherham United Activo 144 / 149 40% 4 17.07.2028 -
Paulinho Borussia Dortmund Informe listo 150 / 144 72% 1 17.07.2028 -
Amin Nabizada Exeter City Activo 109 / 116 40% 1 17.07.2028 -
Luca Meirelles Kudrivka Activo 123 / 117 40% 3 15.07.2028 -
Henrique Carmo Sochi Activo 134 / 147 40% 3 15.07.2028 -
Giovanni Cantizano Fulham Activo 120 / 130 40% 1 15.07.2028 -
Endrick Boca Juniors Activo 164 / 172 40% 2 14.07.2028 -
Rafael Camacho Sporting CP Activo 107 / 113 40% 1 14.07.2028 -
Babis Kostoulas Oxford United Activo 140 / 143 40% 4 12.07.2028 -
André Miranda Porto Activo 118 / 115 40% 1 12.07.2028 -
Rayan Hamburger SV Activo 148 / 147 40% 3 10.07.2028 -
Oskar Pietuszewski Estrela da Amadora Activo 136 / 142 40% 2 10.07.2028 -
Daniel Peretz Wolverhampton Activo 145 / 142 40% 1 10.07.2028 -
Berke Özer LOSC Lille Activo 139 / 138 40% 1 10.07.2028 -
Christos Mouzakitis Hull City Activo 137 / 145 40% 3 08.07.2028 -
Hugo Camberos Dorados Activo 134 / 153 40% 1 07.07.2028 -
Jan Virgili Club Brugge Activo 146 / 150 40% 6 06.07.2028 -
Héctor Fort Real Sociedad Activo 140 / 149 40% 2 06.07.2028 -
Gabe Forsyth Colchester United Activo 117 / 124 40% 3 06.07.2028 -
Alphadjo Cissé Lecce Activo 129 / 146 40% 1 05.07.2028 -
Ethan Nwaneri Arsenal Activo 151 / 163 40% 4 03.07.2028 -
Rémi Himbert AC Ajaccio Activo 123 / 120 40% 2 03.07.2028 -
Anthony Patterson Wrexham Activo 141 / 143 40% 1 03.07.2028 -
Moritz Nicolas Borussia Mönchengladbach Activo 141 / 155 40% 1 03.07.2028 -
Matt Freese Shakhtar Negociando 143 / 153 40% 1 03.07.2028 -
Saïd El Mala Köln Rechazado 145 / 152 72% 5 02.07.2028 Rechazar
Andrija Bulatović Chamois Niortais Activo 124 / 129 40% 2 02.07.2028 -
Shea Lacey Crystal Palace Activo 134 / 142 40% 1 02.07.2028 -
Otto Stange Borussia Mönchengladbach Activo 130 / 126 40% 1 29.06.2028 -
Jamal Iddrissou Pergolettese Activo 109 / 116 40% 2 28.06.2028 -
Radek Vítek Middlesbrough Perdido 147 / 145 40% 1 26.06.2028 -
Christos Mandas Lazio Perdido 145 / 145 40% 1 26.06.2028 -
Kamil Grabara VfL Wolfsburg Perdido 144 / 139 40% 1 26.06.2028 -
Gomolemo Kekana Maritzburg United Activo 122 / 122 40% 1 25.06.2028 -
Jorge Salinas Racing Santander Activo 138 / 143 40% 1 24.06.2028 -
Mateus Mané Burnley Activo 141 / 154 40% 8 22.06.2028 -
Suleman Sani Werder Bremen Activo 135 / 140 40% 1 22.06.2028 -
Pau Cubarsí Real Sociedad Activo 164 / 172 40% 3 19.06.2028 -
Kilian Nikiéma ADO Den Haag Activo 136 / 133 40% 1 19.06.2028 -
Gregor Kobel Borussia Dortmund Activo 170 / 161 40% 1 19.06.2028 -
Cezary Miszta Rio Ave Activo 144 / 136 40% 1 19.06.2028 -
Romelle Donovan Brentford Activo 136 / 129 40% 5 18.06.2028 -
Siyabonga Mabena Bidvest Wits Activo 121 / 119 40% 1 14.06.2028 -
Gabriel Martinelli Arsenal Activo 172 / 173 40% 1 13.06.2028 -
Lucas Høgsberg RC Strasbourg Activo 145 / 145 40% 6 12.06.2028 -
Mohamed Amoura VfL Wolfsburg Informe listo 153 / 144 72% 1 12.06.2028 -
João Simões Sporting CP Perdido 145 / 144 40% 1 12.06.2028 -
Josh Nichols Oldham Athletic Activo 122 / 133 40% 1 12.06.2028 -
Eli Junior Kroupi Bournemouth Activo 142 / 155 40% 1 05.06.2028 -
Serge Gnabry Bayern Munich Informe listo 156 / 165 72% 1 04.06.2028 -
Honest Ahanor Atalanta Activo 135 / 150 40% 1 03.06.2028 -
Maarten Vandevoordt RB Leipzig Activo 148 / 157 40% 2 02.06.2028 -
Mark Travers Leicester City Activo 150 / 148 40% 1 02.06.2028 -
Andriy Lunin Sevilla Activo 160 / 160 40% 1 02.06.2028 -
Largie Ramazani Leeds United Activo 144 / 142 40% 1 31.05.2028 -
Morgan Rogers Chelsea Activo 167 / 159 40% 1 31.05.2028 -
Arthur Bayer Leverkusen Activo 141 / 133 72% 1 04.01.2028 Aprobar
Caleb Yirenkyi Coventry City Activo 145 / 146 40% 6 02.01.2028 -
Ayden Heaven Portsmouth Activo 151 / 155 40% 1 02.01.2028 -
William Gomes Porto Activo 150 / 155 40% 6 21.06.2027 -
Izan Merino Málaga Activo 122 / 125 40% 3 21.06.2027 -
Ethan Williams Peterborough United Activo 116 / 110 40% 2 07.06.2027 -
Oscar Schwartau Norwich City Activo 118 / 129 40% 3 07.06.2027 -
Gonçalo Oliveira Benfica Activo 114 / 114 40% 3 31.05.2027 -
Yussif Saidu Zaragoza Activo 128 / 124 40% 5 31.05.2027 -
Leo Castledine Middlesbrough Activo 131 / 125 40% 5 30.05.2027 -
Jeff Ekhator Juventus Activo 134 / 140 40% 4 30.05.2027 -
Edmund Baidoo St. Gallen Activo 126 / 135 40% 4 30.05.2027 -
Ibrahim Maza Bayer Leverkusen Activo 144 / 151 40% 9 29.05.2027 -
Rafael Moreno Atletico Venezuela Activo 101 / 121 40% 2 29.05.2027 -
Samuele di Benedetto Twente Activo 110 / 112 40% 4 27.05.2027 -
Givairo Read Feyenoord Activo 142 / 148 40% 4 27.05.2027 -
Alex Scott Bournemouth Activo 149 / 157 40% 4 26.05.2027 -
Ousmane Diomande Nottingham Forest Activo 151 / 149 40% 3 26.05.2027 -
Brooke Norton-Cuffy Hull City Activo 138 / 134 40% 1 26.05.2027 -
Senny Mayulu Paris Saint-Germain Activo 146 / 144 40% 4 25.05.2027 -
Alpha Touré FC Metz Activo 112 / 120 40% 6 24.05.2027 -
Sam Amo-Ameyaw RC Strasbourg Activo 128 / 134 40% 2 24.05.2027 -
Gorka Gorosabel Real Sociedad Activo 104 / 109 40% 2 24.05.2027 -
Othmane Maamma Watford Activo 125 / 130 40% 3 22.05.2027 -
Max Johnston Derby County Activo 128 / 135 40% 3 22.05.2027 -
Kees Smit AZ Activo 140 / 148 40% 3 20.05.2027 -
Max Caputo Melbourne City Activo 117 / 109 40% 2 16.05.2027 -
Ben Ahmed Kohili Paradou Activo 95 / 93 40% 2 16.05.2027 -
Bence Dárdai VfL Wolfsburg Activo 126 / 139 40% 1 16.05.2027 -
Jesús Vázquez Valencia Activo 141 / 141 40% 4 15.05.2027 -
Javi Guerra Valencia Activo 141 / 152 40% 1 15.05.2027 -
Ilaix Moriba Celta Activo 154 / 156 40% 2 13.05.2027 -
Nnamdi Collins Eintracht Frankfurt Activo 139 / 130 40% 1 13.05.2027 -
Omar El Hilali Espanyol Activo 144 / 149 40% 1 13.05.2027 -
Jarrad Branthwaite Everton Activo 158 / 160 40% 2 12.05.2027 -
Marc Pubill Atlético Madrid Activo 151 / 145 40% 1 12.05.2027 -
Lewis Hall Newcastle United Activo 150 / 157 40% 4 10.05.2027 -
Juanlu Bournemouth Activo 147 / 147 40% 3 10.05.2027 -
Nico O'Reilly Manchester City Activo 150 / 147 40% 3 09.05.2027 -
Sindre Walle Egeli Udinese Activo 134 / 133 40% 2 06.05.2027 -
Olívio Tomé Benfica Activo 112 / 121 40% 1 06.05.2027 -
Tino Livramento Newcastle United Activo 152 / 158 40% 4 05.05.2027 -
Yehor Yarmoliuk Brentford Activo 143 / 160 40% 5 05.05.2027 -
Jan Bürger Northampton Town Activo 109 / 110 40% 2 04.05.2027 -
Castello Lukeba RB Leipzig Activo 155 / 144 40% 1 04.05.2027 -
Ryan Gravenberch Liverpool Activo 157 / 162 40% 6 03.05.2027 -
Lorenzo Amatucci Deportivo La Coruña Activo 130 / 135 40% 2 03.05.2027 -
Álex Lizancos Burgos Activo 126 / 123 40% 1 03.05.2027 -
Toby Collyer West Bromwich Albion Activo 136 / 141 40% 1 30.04.2027 -
Nikolaus Wurmbrand Girona Activo 124 / 136 40% 2 28.04.2027 -
Bosun Lawal Stoke City Activo 130 / 129 40% 1 28.04.2027 -
Mohamadou Kanté Crawley Town Activo 116 / 115 40% 3 27.04.2027 -
Miguel Figueiredo Benfica Activo 101 / 111 40% 1 25.04.2027 -
Victor Froholdt Porto Activo 150 / 163 40% 1 22.04.2027 -
Miloš Kerkez Liverpool Activo 157 / 156 40% 1 22.04.2027 -
Levi Colwill Chelsea Activo 155 / 165 40% 1 20.04.2027 -
Adam Wharton Crystal Palace Activo 147 / 149 40% 1 20.04.2027 -
Kike Salas Sevilla Activo 148 / 146 40% 1 14.04.2027 -
Mathys Tel Tottenham Activo 137 / 145 40% 1 12.04.2027 -
Kobbie Mainoo Manchester United Activo 157 / 150 40% 6 11.04.2027 -
João Neves Paris Saint-Germain Activo 171 / 167 40% 2 11.04.2027 -
Pablo Barrios Atlético Madrid Activo 162 / 153 40% 1 11.04.2027 -
Rocco Vata Watford Activo 127 / 116 40% 2 09.04.2027 -
Will Lankshear Middlesbrough Activo 116 / 133 40% 1 09.04.2027 -
Emirhan Başyiğit Sivasspor Activo 107 / 106 40% 1 09.04.2027 -
Ryan Oné Sheffield United Activo 114 / 112 40% 1 05.04.2027 -
Pau Navarro Villarreal Activo 137 / 137 40% 2 04.04.2027 -
Chemsdine Talbi Sunderland Activo 141 / 152 40% 3 03.04.2027 -
Illaijh de Ruijter ADO Den Haag Activo 109 / 116 40% 2 03.04.2027 -
Malick Fofana Sunderland Activo 150 / 156 40% 1 25.03.2027 -
Joaquin Seys Club Brugge Activo 129 / 129 40% 1 22.03.2027 -
David Mella Deportivo La Coruña Activo 124 / 132 40% 1 10.03.2027 -
Antonio Nusa RB Leipzig Activo 145 / 143 40% 1 04.03.2027 -
Antoni Milambo Brentford Activo 135 / 148 40% 1 01.03.2027 -
Wouter Burger TSG Hoffenheim Activo 149 / 135 40% 2 31.12.2026 -
Anthony Caci Mainz 05 Activo 143 / 138 40% 2 12.11.2026 -
Aleix García Bayer Leverkusen Activo 144 / 149 40% 2 11.11.2026 -
Alexis Mac Allister Liverpool Activo 161 / 168 40% 3 11.11.2026 -
Rodri Barcelona Activo 178 / 177 40% 4 03.11.2026 -
José Ángel Carmona Sevilla Activo 146 / 151 40% 1 03.11.2026 -
Kim Min-Jae Bayern Munich Activo 162 / 159 40% 3 01.11.2026 -
Felix Nmecha Borussia Dortmund Activo 163 / 151 40% 3 31.10.2026 -
David Raum RB Leipzig Activo 149 / 141 40% 3 31.10.2026 -
Gavi Barcelona Activo 157 / 162 40% 2 29.10.2026 -
Óscar Mingueza Crystal Palace Activo 155 / 154 40% 1 28.10.2026 -
Bernardo TSG Hoffenheim Activo 147 / 152 40% 1 28.10.2026 -
Mats Wieffer Brighton Activo 146 / 152 40% 1 28.10.2026 -
William Saliba Arsenal Activo 170 / 184 40% 2 25.10.2026 -
Frenkie de Jong Barcelona Activo 168 / 163 40% 1 25.10.2026 -
Julian Ryerson Borussia Dortmund Activo 152 / 157 40% 1 24.10.2026 -
Alphonso Davies Bayern Munich Activo 162 / 167 40% 4 20.10.2026 -
Amadou Onana Aston Villa Activo 155 / 147 40% 1 14.10.2026 -
Dominik Szoboszlai Liverpool Activo 171 / 158 40% 2 13.10.2026 -
Marc Guéhi Manchester City Activo 169 / 168 40% 1 13.10.2026 -
Miguel Gutiérrez Bayer Leverkusen Activo 150 / 148 40% 1 11.10.2026 -
Moisés Caicedo Chelsea Activo 164 / 159 40% 1 03.10.2026 -
Nico Schlotterbeck Borussia Dortmund Activo 160 / 156 40% 1 03.10.2026 -
Joško Gvardiol Manchester City Activo 167 / 168 40% 2 01.10.2026 -
Rúben Dias Manchester City Activo 164 / 170 40% 1 01.10.2026 -
Jeremie Frimpong Liverpool Activo 159 / 164 40% 2 29.09.2026 -
Wesley Fofana Chelsea Activo 157 / 159 40% 1 29.09.2026 -
Pedro Porro Tottenham Activo 143 / 155 40% 1 29.09.2026 -
Noussair Mazraoui Manchester United Activo 157 / 140 40% 1 26.09.2026 -
Sven Botman Newcastle United Activo 155 / 150 40% 2 25.09.2026 -
Enzo Fernández Manchester City Activo 170 / 165 40% 1 24.09.2026 -
Loïc Badé Bayer Leverkusen Activo 147 / 140 40% 1 22.09.2026 -
Youri Tielemans Manchester United Activo 156 / 150 40% 1 19.09.2026 -
Jurriën Timber Arsenal Activo 157 / 163 40% 1 19.09.2026 -
Ibrahima Konaté Real Madrid Activo 152 / 168 40% 1 17.09.2026 -
Denzel Dumfries Real Madrid Activo 160 / 150 40% 1 14.09.2026 -
Alejandro Grimaldo Atlético Madrid Activo 162 / 160 40% 2 13.09.2026 -
Gabriel Arsenal Activo 174 / 161 40% 1 13.09.2026 -
Martin Terrier Bayer Leverkusen Activo 138 / 131 72% 1 03.08.2026 Aprobar